sensor_id;sensor_type;location;lat;lon;timestamp;pressure;altitude;pressure_sealevel;temperature;humidity
46392;BME280;32098;49.448;7.904;2023-03-05T00:01:12;98551.63;;;1.90;67.88
46392;BME280;32098;49.448;7.904;2023-03-05T00:03:39;98557.06;;;1.80;68.67
46392;BME280;32098;49.448;7.904;2023-03-05T00:06:06;98554.09;;;1.75;69.20
46392;BME280;32098;49.448;7.904;2023-03-05T00:08:33;98546.34;;;1.74;69.28
46392;BME280;32098;49.448;7.904;2023-03-05T00:11:03;98545.38;;;1.83;69.03
46392;BME280;32098;49.448;7.904;2023-03-05T00:13:30;98542.75;;;1.91;68.33
46392;BME280;32098;49.448;7.904;2023-03-05T00:15:56;98549.00;;;1.90;68.31
46392;BME280;32098;49.448;7.904;2023-03-05T00:18:23;98547.00;;;1.84;69.02
46392;BME280;32098;49.448;7.904;2023-03-05T00:20:49;98545.06;;;1.86;68.77
46392;BME280;32098;49.448;7.904;2023-03-05T00:23:16;98550.66;;;1.91;68.85
46392;BME280;32098;49.448;7.904;2023-03-05T00:25:42;98544.03;;;1.95;68.21
46392;BME280;32098;49.448;7.904;2023-03-05T00:28:11;98539.94;;;1.92;68.76
46392;BME280;32098;49.448;7.904;2023-03-05T00:30:38;98537.81;;;1.88;68.66
46392;BME280;32098;49.448;7.904;2023-03-05T00:33:05;98535.16;;;1.88;68.39
46392;BME280;32098;49.448;7.904;2023-03-05T00:35:38;98520.84;;;1.82;68.66
46392;BME280;32098;49.448;7.904;2023-03-05T00:38:04;98530.41;;;1.75;69.43
46392;BME280;32098;49.448;7.904;2023-03-05T00:40:34;98525.16;;;1.75;69.58
46392;BME280;32098;49.448;7.904;2023-03-05T00:43:02;98526.47;;;1.63;69.54
46392;BME280;32098;49.448;7.904;2023-03-05T00:45:29;98524.81;;;1.54;70.29
46392;BME280;32098;49.448;7.904;2023-03-05T00:47:56;98516.25;;;1.44;70.45
46392;BME280;32098;49.448;7.904;2023-03-05T00:50:25;98510.84;;;1.37;70.62
46392;BME280;32098;49.448;7.904;2023-03-05T00:52:52;98503.44;;;1.33;71.13
46392;BME280;32098;49.448;7.904;2023-03-05T00:55:19;98506.06;;;1.25;71.51
46392;BME280;32098;49.448;7.904;2023-03-05T00:57:46;98502.28;;;1.19;71.05
46392;BME280;32098;49.448;7.904;2023-03-05T01:00:13;98499.66;;;1.19;71.26
46392;BME280;32098;49.448;7.904;2023-03-05T01:02:40;98496.53;;;1.16;71.57
46392;BME280;32098;49.448;7.904;2023-03-05T01:05:10;98507.22;;;1.22;71.88
46392;BME280;32098;49.448;7.904;2023-03-05T01:07:38;98494.91;;;1.23;72.39
46392;BME280;32098;49.448;7.904;2023-03-05T01:10:05;98493.09;;;1.23;72.09
46392;BME280;32098;49.448;7.904;2023-03-05T01:12:32;98500.97;;;1.31;71.46
46392;BME280;32098;49.448;7.904;2023-03-05T01:14:59;98477.97;;;1.17;71.64
46392;BME280;32098;49.448;7.904;2023-03-05T01:17:25;98490.44;;;1.31;71.69
46392;BME280;32098;49.448;7.904;2023-03-05T01:19:52;98498.66;;;1.36;71.40
46392;BME280;32098;49.448;7.904;2023-03-05T01:22:18;98488.66;;;1.40;70.99
46392;BME280;32098;49.448;7.904;2023-03-05T01:24:45;98496.03;;;1.36;71.51
46392;BME280;32098;49.448;7.904;2023-03-05T01:27:11;98486.84;;;1.32;71.23
46392;BME280;32098;49.448;7.904;2023-03-05T01:29:38;98492.09;;;1.32;71.90
46392;BME280;32098;49.448;7.904;2023-03-05T01:32:04;98483.19;;;1.33;71.43
46392;BME280;32098;49.448;7.904;2023-03-05T01:34:31;98485.38;;;1.38;71.55
46392;BME280;32098;49.448;7.904;2023-03-05T01:36:58;98476.66;;;1.45;71.23
46392;BME280;32098;49.448;7.904;2023-03-05T01:39:24;98467.91;;;1.45;71.17
46392;BME280;32098;49.448;7.904;2023-03-05T01:41:51;98470.56;;;1.45;70.98
46392;BME280;32098;49.448;7.904;2023-03-05T01:44:23;98474.00;;;1.37;71.37
46392;BME280;32098;49.448;7.904;2023-03-05T01:46:50;98472.69;;;1.33;71.81
46392;BME280;32098;49.448;7.904;2023-03-05T01:49:26;98474.00;;;1.29;71.85
46392;BME280;32098;49.448;7.904;2023-03-05T01:52:15;98428.66;;;1.03;71.70
46392;BME280;32098;49.448;7.904;2023-03-05T01:54:56;98470.22;;;1.32;71.87
46392;BME280;32098;49.448;7.904;2023-03-05T01:57:31;98470.06;;;1.25;72.21
46392;BME280;32098;49.448;7.904;2023-03-05T02:00:03;98469.56;;;1.22;72.39
46392;BME280;32098;49.448;7.904;2023-03-05T02:02:38;98462.34;;;1.16;72.90
46392;BME280;32098;49.448;7.904;2023-03-05T02:05:09;98459.38;;;1.11;72.71
46392;BME280;32098;49.448;7.904;2023-03-05T02:07:37;98457.91;;;1.08;72.12
46392;BME280;32098;49.448;7.904;2023-03-05T02:10:33;98442.94;;;1.09;72.51
46392;BME280;32098;49.448;7.904;2023-03-05T02:13:03;98446.38;;;1.09;72.79
46392;BME280;32098;49.448;7.904;2023-03-05T02:15:31;98445.88;;;1.14;72.26
46392;BME280;32098;49.448;7.904;2023-03-05T02:17:58;98446.72;;;1.22;72.54
46392;BME280;32098;49.448;7.904;2023-03-05T02:20:29;98448.84;;;1.19;72.48
46392;BME280;32098;49.448;7.904;2023-03-05T02:22:56;98442.13;;;1.00;73.02
46392;BME280;32098;49.448;7.904;2023-03-05T02:25:28;98437.34;;;1.04;73.00
46392;BME280;32098;49.448;7.904;2023-03-05T02:27:59;98434.88;;;1.02;72.91
46392;BME280;32098;49.448;7.904;2023-03-05T02:30:27;98444.91;;;1.07;72.65
46392;BME280;32098;49.448;7.904;2023-03-05T02:32:54;98432.72;;;1.14;72.42
46392;BME280;32098;49.448;7.904;2023-03-05T02:35:20;98426.00;;;1.19;72.50
46392;BME280;32098;49.448;7.904;2023-03-05T02:37:47;98423.69;;;1.16;72.61
46392;BME280;32098;49.448;7.904;2023-03-05T02:40:13;98430.94;;;1.22;72.53
46392;BME280;32098;49.448;7.904;2023-03-05T02:42:41;98418.44;;;1.24;72.60
46392;BME280;32098;49.448;7.904;2023-03-05T02:45:12;98407.59;;;1.19;72.18
46392;BME280;32098;49.448;7.904;2023-03-05T02:47:40;98421.38;;;1.29;72.29
46392;BME280;32098;49.448;7.904;2023-03-05T02:50:09;98419.59;;;1.30;72.41
46392;BME280;32098;49.448;7.904;2023-03-05T02:52:37;98409.06;;;1.30;72.40
46392;BME280;32098;49.448;7.904;2023-03-05T02:55:08;98412.34;;;1.32;72.52
46392;BME280;32098;49.448;7.904;2023-03-05T02:57:36;98407.41;;;1.29;72.86
46392;BME280;32098;49.448;7.904;2023-03-05T03:00:04;98411.19;;;1.34;72.70
46392;BME280;32098;49.448;7.904;2023-03-05T03:02:31;98403.13;;;1.36;72.40
46392;BME280;32098;49.448;7.904;2023-03-05T03:04:59;98400.34;;;1.29;72.74
46392;BME280;32098;49.448;7.904;2023-03-05T03:07:25;98400.34;;;1.21;72.88
46392;BME280;32098;49.448;7.904;2023-03-05T03:09:52;98402.31;;;1.27;72.60
46392;BME280;32098;49.448;7.904;2023-03-05T03:12:18;98395.59;;;1.25;72.99
46392;BME280;32098;49.448;7.904;2023-03-05T03:14:45;98392.50;;;1.13;73.27
46392;BME280;32098;49.448;7.904;2023-03-05T03:17:14;98396.91;;;1.13;73.47
46392;BME280;32098;49.448;7.904;2023-03-05T03:19:41;98388.53;;;1.17;73.11
46392;BME280;32098;49.448;7.904;2023-03-05T03:22:11;98388.19;;;1.20;72.65
46392;BME280;32098;49.448;7.904;2023-03-05T03:24:40;98393.47;;;1.20;72.82
46392;BME280;32098;49.448;7.904;2023-03-05T03:27:07;98381.47;;;1.10;73.06
46392;BME280;32098;49.448;7.904;2023-03-05T03:29:34;98384.28;;;1.00;73.24
46392;BME280;32098;49.448;7.904;2023-03-05T03:32:01;98375.22;;;0.95;73.06
46392;BME280;32098;49.448;7.904;2023-03-05T03:34:28;98379.97;;;0.91;73.78
46392;BME280;32098;49.448;7.904;2023-03-05T03:36:55;98360.59;;;0.84;74.02
46392;BME280;32098;49.448;7.904;2023-03-05T03:39:21;98366.69;;;0.84;73.47
46392;BME280;32098;49.448;7.904;2023-03-05T03:41:51;98361.44;;;0.84;73.38
46392;BME280;32098;49.448;7.904;2023-03-05T03:44:19;98363.88;;;0.94;73.36
46392;BME280;32098;49.448;7.904;2023-03-05T03:46:47;98361.44;;;1.01;73.37
46392;BME280;32098;49.448;7.904;2023-03-05T03:49:16;98361.06;;;1.04;73.38
46392;BME280;32098;49.448;7.904;2023-03-05T03:51:43;98362.56;;;1.06;73.07
46392;BME280;32098;49.448;7.904;2023-03-05T03:54:09;98359.94;;;1.06;73.02
46392;BME280;32098;49.448;7.904;2023-03-05T03:56:36;98359.41;;;1.19;73.00
46392;BME280;32098;49.448;7.904;2023-03-05T03:59:02;98359.78;;;1.16;72.75
46392;BME280;32098;49.448;7.904;2023-03-05T04:01:29;98359.59;;;1.09;73.04
46392;BME280;32098;49.448;7.904;2023-03-05T04:03:55;98360.44;;;1.10;73.38
46392;BME280;32098;49.448;7.904;2023-03-05T04:06:22;98350.75;;;1.02;73.12
46392;BME280;32098;49.448;7.904;2023-03-05T04:08:49;98353.38;;;1.10;73.32
46392;BME280;32098;49.448;7.904;2023-03-05T04:11:15;98324.81;;;0.83;73.43
46392;BME280;32098;49.448;7.904;2023-03-05T04:13:46;98350.91;;;0.93;73.77
46392;BME280;32098;49.448;7.904;2023-03-05T04:16:13;98358.63;;;1.02;73.77
46392;BME280;32098;49.448;7.904;2023-03-05T04:18:41;98360.59;;;1.08;73.31
46392;BME280;32098;49.448;7.904;2023-03-05T04:21:08;98350.41;;;1.05;73.49
46392;BME280;32098;49.448;7.904;2023-03-05T04:23:34;98358.31;;;1.05;73.24
46392;BME280;32098;49.448;7.904;2023-03-05T04:26:01;98350.75;;;1.02;73.37
46392;BME280;32098;49.448;7.904;2023-03-05T04:28:27;98346.81;;;0.98;73.51
46392;BME280;32098;49.448;7.904;2023-03-05T04:30:54;98344.50;;;0.87;74.04
46392;BME280;32098;49.448;7.904;2023-03-05T04:33:20;98337.44;;;0.96;73.14
46392;BME280;32098;49.448;7.904;2023-03-05T04:35:47;98339.91;;;0.97;73.45
46392;BME280;32098;49.448;7.904;2023-03-05T04:38:14;98347.47;;;1.00;73.68
46392;BME280;32098;49.448;7.904;2023-03-05T04:40:40;98338.75;;;1.00;73.37
46392;BME280;32098;49.448;7.904;2023-03-05T04:43:07;98338.09;;;0.98;73.67
46392;BME280;32098;49.448;7.904;2023-03-05T04:45:33;98342.53;;;0.97;73.76
46392;BME280;32098;49.448;7.904;2023-03-05T04:48:00;98348.75;;;0.96;73.53
46392;BME280;32098;49.448;7.904;2023-03-05T04:50:26;98344.19;;;0.90;73.70
46392;BME280;32098;49.448;7.904;2023-03-05T04:52:53;98345.66;;;0.84;73.95
46392;BME280;32098;49.448;7.904;2023-03-05T04:55:19;98345.97;;;0.81;73.88
46392;BME280;32098;49.448;7.904;2023-03-05T04:57:46;98343.19;;;0.83;74.60
46392;BME280;32098;49.448;7.904;2023-03-05T05:00:15;98339.56;;;0.84;73.74
46392;BME280;32098;49.448;7.904;2023-03-05T05:02:44;98338.91;;;0.82;73.82
46392;BME280;32098;49.448;7.904;2023-03-05T05:05:13;98335.97;;;0.77;74.25
46392;BME280;32098;49.448;7.904;2023-03-05T05:07:40;98336.28;;;0.82;73.89
46392;BME280;32098;49.448;7.904;2023-03-05T05:10:08;98328.59;;;0.80;74.20
46392;BME280;32098;49.448;7.904;2023-03-05T05:12:35;98325.13;;;0.72;74.34
46392;BME280;32098;49.448;7.904;2023-03-05T05:15:04;98328.41;;;0.74;74.48
46392;BME280;32098;49.448;7.904;2023-03-05T05:17:31;98326.94;;;0.79;74.09
46392;BME280;32098;49.448;7.904;2023-03-05T05:20:01;98331.34;;;0.87;74.09
46392;BME280;32098;49.448;7.904;2023-03-05T05:22:28;98328.72;;;0.87;73.99
46392;BME280;32098;49.448;7.904;2023-03-05T05:24:55;98321.50;;;0.89;74.06
46392;BME280;32098;49.448;7.904;2023-03-05T05:27:21;98330.03;;;0.91;73.94
46392;BME280;32098;49.448;7.904;2023-03-05T05:29:48;98330.72;;;0.85;74.05
46392;BME280;32098;49.448;7.904;2023-03-05T05:32:19;98326.59;;;0.82;74.26
46392;BME280;32098;49.448;7.904;2023-03-05T05:34:47;98329.06;;;0.84;74.20
46392;BME280;32098;49.448;7.904;2023-03-05T05:37:14;98329.56;;;0.87;74.36
46392;BME280;32098;49.448;7.904;2023-03-05T05:39:40;98317.88;;;0.82;74.03
46392;BME280;32098;49.448;7.904;2023-03-05T05:42:07;98317.38;;;0.78;74.50
46392;BME280;32098;49.448;7.904;2023-03-05T05:44:33;98319.22;;;0.78;74.76
46392;BME280;32098;49.448;7.904;2023-03-05T05:47:00;98298.53;;;0.75;73.94
46392;BME280;32098;49.448;7.904;2023-03-05T05:49:27;98321.34;;;0.82;74.61
46392;BME280;32098;49.448;7.904;2023-03-05T05:51:53;98315.91;;;0.84;74.36
46392;BME280;32098;49.448;7.904;2023-03-05T05:54:21;98299.16;;;0.77;74.11
46392;BME280;32098;49.448;7.904;2023-03-05T05:56:47;98310.66;;;0.84;74.50
46392;BME280;32098;49.448;7.904;2023-03-05T05:59:14;98319.88;;;0.80;74.79
46392;BME280;32098;49.448;7.904;2023-03-05T06:01:40;98311.66;;;0.83;75.00
46392;BME280;32098;49.448;7.904;2023-03-05T06:04:07;98312.31;;;0.85;74.93
46392;BME280;32098;49.448;7.904;2023-03-05T06:06:33;98315.25;;;0.90;74.45
46392;BME280;32098;49.448;7.904;2023-03-05T06:09:00;98306.69;;;0.96;74.54
46392;BME280;32098;49.448;7.904;2023-03-05T06:11:26;98304.75;;;0.98;74.21
46392;BME280;32098;49.448;7.904;2023-03-05T06:13:53;98299.81;;;0.95;74.79
46392;BME280;32098;49.448;7.904;2023-03-05T06:16:22;98300.28;;;0.99;74.67
46392;BME280;32098;49.448;7.904;2023-03-05T06:18:50;98307.69;;;1.03;74.70
46392;BME280;32098;49.448;7.904;2023-03-05T06:21:18;98302.44;;;1.03;74.14
46392;BME280;32098;49.448;7.904;2023-03-05T06:23:46;98290.59;;;0.99;74.61
46392;BME280;32098;49.448;7.904;2023-03-05T06:26:16;98299.28;;;1.08;74.26
46392;BME280;32098;49.448;7.904;2023-03-05T06:28:42;98297.50;;;1.00;74.32
46392;BME280;32098;49.448;7.904;2023-03-05T06:31:17;98308.34;;;0.89;74.23
46392;BME280;32098;49.448;7.904;2023-03-05T06:33:45;98296.84;;;0.74;75.24
46392;BME280;32098;49.448;7.904;2023-03-05T06:36:14;98303.13;;;0.73;75.93
46392;BME280;32098;49.448;7.904;2023-03-05T06:38:41;98300.63;;;0.71;75.72
46392;BME280;32098;49.448;7.904;2023-03-05T06:41:11;98302.13;;;0.74;75.82
46392;BME280;32098;49.448;7.904;2023-03-05T06:43:40;98297.84;;;0.89;74.69
46392;BME280;32098;49.448;7.904;2023-03-05T06:46:28;98300.31;;;0.91;75.38
46392;BME280;32098;49.448;7.904;2023-03-05T06:48:56;98294.22;;;0.82;75.25
46392;BME280;32098;49.448;7.904;2023-03-05T06:51:28;98304.75;;;0.82;76.68
46392;BME280;32098;49.448;7.904;2023-03-05T06:54:00;98302.75;;;0.84;76.68
46392;BME280;32098;49.448;7.904;2023-03-05T06:56:27;98300.31;;;0.91;76.54
46392;BME280;32098;49.448;7.904;2023-03-05T06:58:53;98300.47;;;0.97;75.80
46392;BME280;32098;49.448;7.904;2023-03-05T07:01:20;98310.78;;;1.07;75.89
46392;BME280;32098;49.448;7.904;2023-03-05T07:03:51;98307.00;;;1.01;76.16
46392;BME280;32098;49.448;7.904;2023-03-05T07:06:18;98298.47;;;0.99;76.64
46392;BME280;32098;49.448;7.904;2023-03-05T07:08:45;98281.72;;;0.92;76.80
46392;BME280;32098;49.448;7.904;2023-03-05T07:11:14;98298.47;;;1.07;77.13
46392;BME280;32098;49.448;7.904;2023-03-05T07:13:41;98292.88;;;1.10;76.72
46392;BME280;32098;49.448;7.904;2023-03-05T07:16:11;98295.81;;;1.23;75.90
46392;BME280;32098;49.448;7.904;2023-03-05T07:18:38;98301.66;;;1.33;75.74
46392;BME280;32098;49.448;7.904;2023-03-05T07:21:06;98290.81;;;1.36;75.61
46392;BME280;32098;49.448;7.904;2023-03-05T07:23:34;98296.06;;;1.44;75.69
46392;BME280;32098;49.448;7.904;2023-03-05T07:26:02;98297.31;;;1.57;75.33
46392;BME280;32098;49.448;7.904;2023-03-05T07:28:30;98303.91;;;1.61;75.20
46392;BME280;32098;49.448;7.904;2023-03-05T07:31:02;98272.34;;;1.52;74.89
46392;BME280;32098;49.448;7.904;2023-03-05T07:33:29;98293.28;;;1.77;74.36
46392;BME280;32098;49.448;7.904;2023-03-05T07:35:55;98294.75;;;1.79;74.11
46392;BME280;32098;49.448;7.904;2023-03-05T07:38:22;98291.91;;;1.89;73.82
46392;BME280;32098;49.448;7.904;2023-03-05T07:40:49;98283.66;;;1.92;73.29
46392;BME280;32098;49.448;7.904;2023-03-05T07:43:16;98282.97;;;1.98;73.39
46392;BME280;32098;49.448;7.904;2023-03-05T07:45:44;98278.66;;;2.05;73.15
46392;BME280;32098;49.448;7.904;2023-03-05T07:48:14;98287.50;;;2.12;73.53
46392;BME280;32098;49.448;7.904;2023-03-05T07:50:41;98278.53;;;2.21;72.79
46392;BME280;32098;49.448;7.904;2023-03-05T07:53:08;98286.72;;;2.26;72.33
46392;BME280;32098;49.448;7.904;2023-03-05T07:55:34;98275.59;;;2.39;71.93
46392;BME280;32098;49.448;7.904;2023-03-05T07:58:06;98271.75;;;2.27;71.01
46392;BME280;32098;49.448;7.904;2023-03-05T08:00:33;98271.41;;;2.30;70.99
46392;BME280;32098;49.448;7.904;2023-03-05T08:02:59;98269.69;;;2.37;71.48
46392;BME280;32098;49.448;7.904;2023-03-05T08:05:25;98260.97;;;2.36;70.91
46392;BME280;32098;49.448;7.904;2023-03-05T08:07:52;98270.75;;;2.50;75.48
46392;BME280;32098;49.448;7.904;2023-03-05T08:10:19;98276.44;;;3.72;86.00
46392;BME280;32098;49.448;7.904;2023-03-05T08:12:45;98263.63;;;3.25;68.25
46392;BME280;32098;49.448;7.904;2023-03-05T08:15:12;98269.47;;;3.35;67.56
46392;BME280;32098;49.448;7.904;2023-03-05T08:17:38;98268.25;;;3.09;66.42
46392;BME280;32098;49.448;7.904;2023-03-05T08:20:05;98266.78;;;2.92;66.54
46392;BME280;32098;49.448;7.904;2023-03-05T08:22:37;98258.00;;;2.76;67.07
46392;BME280;32098;49.448;7.904;2023-03-05T08:25:04;98272.28;;;2.82;68.11
46392;BME280;32098;49.448;7.904;2023-03-05T08:27:31;98265.00;;;2.84;67.51
46392;BME280;32098;49.448;7.904;2023-03-05T08:30:00;98255.94;;;2.87;67.16
46392;BME280;32098;49.448;7.904;2023-03-05T08:32:27;98272.88;;;2.92;68.02
46392;BME280;32098;49.448;7.904;2023-03-05T08:34:55;98269.13;;;2.87;66.68
46392;BME280;32098;49.448;7.904;2023-03-05T08:37:24;98272.44;;;2.89;67.33
46392;BME280;32098;49.448;7.904;2023-03-05T08:39:50;98263.16;;;2.93;66.55
46392;BME280;32098;49.448;7.904;2023-03-05T08:42:16;98270.25;;;2.92;66.12
46392;BME280;32098;49.448;7.904;2023-03-05T08:44:43;98270.88;;;2.94;65.70
46392;BME280;32098;49.448;7.904;2023-03-05T08:47:09;98261.00;;;2.96;64.88
46392;BME280;32098;49.448;7.904;2023-03-05T08:49:36;98259.59;;;2.86;63.18
46392;BME280;32098;49.448;7.904;2023-03-05T08:52:02;98270.88;;;2.71;62.76
46392;BME280;32098;49.448;7.904;2023-03-05T08:54:29;98266.28;;;2.73;63.02
46392;BME280;32098;49.448;7.904;2023-03-05T08:56:55;98266.72;;;2.40;63.51
46392;BME280;32098;49.448;7.904;2023-03-05T08:59:22;98264.31;;;2.30;62.58
46392;BME280;32098;49.448;7.904;2023-03-05T09:01:48;98263.59;;;2.36;62.74
46392;BME280;32098;49.448;7.904;2023-03-05T09:04:15;98263.50;;;2.52;63.20
46392;BME280;32098;49.448;7.904;2023-03-05T09:06:42;98254.38;;;2.40;61.97
46392;BME280;32098;49.448;7.904;2023-03-05T09:09:08;98239.66;;;1.78;62.28
46392;BME280;32098;49.448;7.904;2023-03-05T09:11:36;98252.25;;;1.90;61.38
46392;BME280;32098;49.448;7.904;2023-03-05T09:14:03;98248.78;;;1.90;61.25
46392;BME280;32098;49.448;7.904;2023-03-05T09:16:30;98236.03;;;2.01;61.15
46392;BME280;32098;49.448;7.904;2023-03-05T09:18:58;98243.81;;;1.95;61.10
46392;BME280;32098;49.448;7.904;2023-03-05T09:21:25;98242.47;;;2.22;61.35
46392;BME280;32098;49.448;7.904;2023-03-05T09:23:51;98245.16;;;2.36;61.30
46392;BME280;32098;49.448;7.904;2023-03-05T09:26:18;98242.47;;;2.44;60.17
46392;BME280;32098;49.448;7.904;2023-03-05T09:28:46;98240.06;;;2.57;60.10
46392;BME280;32098;49.448;7.904;2023-03-05T09:31:13;98233.19;;;2.71;60.39
46392;BME280;32098;49.448;7.904;2023-03-05T09:33:39;98233.91;;;2.79;59.51
46392;BME280;32098;49.448;7.904;2023-03-05T09:36:21;98234.22;;;2.85;58.85
46392;BME280;32098;49.448;7.904;2023-03-05T09:38:49;98233.50;;;2.91;58.88
46392;BME280;32098;49.448;7.904;2023-03-05T09:41:27;98225.69;;;2.97;58.99
46392;BME280;32098;49.448;7.904;2023-03-05T09:44:22;98223.13;;;3.04;58.01
46392;BME280;32098;49.448;7.904;2023-03-05T09:47:42;98222.75;;;3.07;57.33
46392;BME280;32098;49.448;7.904;2023-03-05T09:50:32;98216.94;;;3.11;57.23
46392;BME280;32098;49.448;7.904;2023-03-05T09:53:24;98213.38;;;3.19;57.02
46392;BME280;32098;49.448;7.904;2023-03-05T09:56:08;98205.31;;;3.20;56.86
46392;BME280;32098;49.448;7.904;2023-03-05T09:58:41;98206.56;;;3.24;56.97
46392;BME280;32098;49.448;7.904;2023-03-05T10:06:22;98196.19;;;3.37;55.79
46392;BME280;32098;49.448;7.904;2023-03-05T10:09:22;98190.34;;;3.42;55.63
46392;BME280;32098;49.448;7.904;2023-03-05T10:14:48;98184.69;;;3.45;55.32
46392;BME280;32098;49.448;7.904;2023-03-05T10:26:25;98186.16;;;3.47;54.27
46392;BME280;32098;49.448;7.904;2023-03-05T10:29:02;98180.31;;;3.52;54.54
46392;BME280;32098;49.448;7.904;2023-03-05T10:31:42;98175.91;;;3.59;54.28
46392;BME280;32098;49.448;7.904;2023-03-05T10:42:53;98173.44;;;3.72;54.50
46392;BME280;32098;49.448;7.904;2023-03-05T10:45:30;98168.78;;;3.74;54.58
46392;BME280;32098;49.448;7.904;2023-03-05T10:48:27;98164.78;;;3.78;54.70
46392;BME280;32098;49.448;7.904;2023-03-05T10:51:16;98160.94;;;3.81;53.68
46392;BME280;32098;49.448;7.904;2023-03-05T10:53:49;98162.56;;;3.82;53.64
46392;BME280;32098;49.448;7.904;2023-03-05T10:56:21;98161.00;;;3.87;53.92
46392;BME280;32098;49.448;7.904;2023-03-05T10:58:47;98156.72;;;3.86;53.93
46392;BME280;32098;49.448;7.904;2023-03-05T11:04:03;98154.72;;;3.88;54.03
46392;BME280;32098;49.448;7.904;2023-03-05T11:06:35;98146.97;;;3.87;54.16
46392;BME280;32098;49.448;7.904;2023-03-05T11:09:25;98145.03;;;3.95;53.86
46392;BME280;32098;49.448;7.904;2023-03-05T11:14:28;98132.38;;;3.91;54.60
46392;BME280;32098;49.448;7.904;2023-03-05T11:16:56;98140.06;;;3.86;54.22
46392;BME280;32098;49.448;7.904;2023-03-05T11:19:28;98139.22;;;3.85;54.22
46392;BME280;32098;49.448;7.904;2023-03-05T11:22:16;98129.75;;;3.91;54.34
46392;BME280;32098;49.448;7.904;2023-03-05T11:25:02;98135.66;;;3.93;54.48
46392;BME280;32098;49.448;7.904;2023-03-05T11:27:34;98126.16;;;3.98;54.52
46392;BME280;32098;49.448;7.904;2023-03-05T11:30:05;98130.41;;;3.99;54.13
46392;BME280;32098;49.448;7.904;2023-03-05T11:32:43;98129.22;;;4.02;54.50
46392;BME280;32098;49.448;7.904;2023-03-05T11:35:31;98120.34;;;4.09;53.74
46392;BME280;32098;49.448;7.904;2023-03-05T11:38:00;98120.78;;;4.13;53.68
46392;BME280;32098;49.448;7.904;2023-03-05T11:40:29;98119.22;;;4.19;53.36
46392;BME280;32098;49.448;7.904;2023-03-05T11:42:59;98110.09;;;4.21;53.67
46392;BME280;32098;49.448;7.904;2023-03-05T11:45:30;98120.78;;;4.13;53.21
46392;BME280;32098;49.448;7.904;2023-03-05T11:48:23;98109.75;;;4.09;53.40
46392;BME280;32098;49.448;7.904;2023-03-05T11:50:54;98107.50;;;4.06;54.20
46392;BME280;32098;49.448;7.904;2023-03-05T11:53:26;98107.38;;;4.15;54.04
46392;BME280;32098;49.448;7.904;2023-03-05T11:56:05;98105.34;;;4.17;53.63
46392;BME280;32098;49.448;7.904;2023-03-05T12:01:13;98101.53;;;5.28;67.26
46392;BME280;32098;49.448;7.904;2023-03-05T12:03:41;98086.56;;;5.68;59.51
46392;BME280;32098;49.448;7.904;2023-03-05T12:06:16;98077.53;;;5.50;52.42
46392;BME280;32098;49.448;7.904;2023-03-05T12:08:48;98075.88;;;5.29;51.43
46392;BME280;32098;49.448;7.904;2023-03-05T12:11:22;98071.00;;;4.85;51.41
46392;BME280;32098;49.448;7.904;2023-03-05T12:13:55;98065.81;;;4.64;52.40
46392;BME280;32098;49.448;7.904;2023-03-05T12:16:32;98066.81;;;4.63;53.05
46392;BME280;32098;49.448;7.904;2023-03-05T12:21:37;98056.44;;;4.61;52.98
46392;BME280;32098;49.448;7.904;2023-03-05T12:32:00;98029.78;;;4.63;52.02
46392;BME280;32098;49.448;7.904;2023-03-05T12:37:15;98035.84;;;4.57;53.01
46392;BME280;32098;49.448;7.904;2023-03-05T12:39:59;98033.19;;;4.50;53.00
46392;BME280;32098;49.448;7.904;2023-03-05T12:47:39;98032.75;;;4.47;53.01
46392;BME280;32098;49.448;7.904;2023-03-05T12:52:58;98022.75;;;4.36;53.27
46392;BME280;32098;49.448;7.904;2023-03-05T12:58:14;98017.00;;;4.32;54.36
46392;BME280;32098;49.448;7.904;2023-03-05T13:00:49;98005.38;;;4.27;54.66
46392;BME280;32098;49.448;7.904;2023-03-05T13:03:29;97962.50;;;3.90;53.70
46392;BME280;32098;49.448;7.904;2023-03-05T13:05:57;98009.19;;;4.11;54.16
46392;BME280;32098;49.448;7.904;2023-03-05T13:08:27;97998.41;;;4.13;54.66
46392;BME280;32098;49.448;7.904;2023-03-05T13:11:15;98006.53;;;4.11;54.37
46392;BME280;32098;49.448;7.904;2023-03-05T13:13:43;97999.63;;;4.17;54.71
46392;BME280;32098;49.448;7.904;2023-03-05T13:16:24;98011.63;;;4.13;55.54
46392;BME280;32098;49.448;7.904;2023-03-05T13:18:52;98000.84;;;4.14;55.46
46392;BME280;32098;49.448;7.904;2023-03-05T13:21:24;97991.69;;;4.10;55.66
46392;BME280;32098;49.448;7.904;2023-03-05T13:23:53;97981.69;;;4.05;55.79
46392;BME280;32098;49.448;7.904;2023-03-05T13:26:28;97984.75;;;4.09;56.15
46392;BME280;32098;49.448;7.904;2023-03-05T13:29:05;97982.69;;;4.04;56.02
46392;BME280;32098;49.448;7.904;2023-03-05T13:31:44;97979.81;;;3.99;56.60
46392;BME280;32098;49.448;7.904;2023-03-05T13:34:25;97975.56;;;3.98;56.64
46392;BME280;32098;49.448;7.904;2023-03-05T13:37:18;97969.63;;;3.96;56.32
46392;BME280;32098;49.448;7.904;2023-03-05T13:40:04;97973.81;;;3.84;56.20
46392;BME280;32098;49.448;7.904;2023-03-05T13:42:40;97974.16;;;3.75;56.44
46392;BME280;32098;49.448;7.904;2023-03-05T13:45:26;97966.47;;;3.80;57.32
46392;BME280;32098;49.448;7.904;2023-03-05T13:47:59;97961.66;;;3.90;56.73
46392;BME280;32098;49.448;7.904;2023-03-05T13:50:39;97959.06;;;3.96;56.97
46392;BME280;32098;49.448;7.904;2023-03-05T13:55:52;97948.34;;;4.04;57.92
46392;BME280;32098;49.448;7.904;2023-03-05T14:03:49;97946.78;;;4.17;56.15
46392;BME280;32098;49.448;7.904;2023-03-05T14:06:19;97946.41;;;4.20;55.73
46392;BME280;32098;49.448;7.904;2023-03-05T14:08:53;97937.09;;;4.24;56.35
46392;BME280;32098;49.448;7.904;2023-03-05T14:11:20;97916.28;;;4.14;55.93
46392;BME280;32098;49.448;7.904;2023-03-05T14:13:47;97923.66;;;4.25;55.50
46392;BME280;32098;49.448;7.904;2023-03-05T14:16:23;97920.41;;;4.23;55.59
46392;BME280;32098;49.448;7.904;2023-03-05T14:18:56;97918.81;;;4.29;55.71
46392;BME280;32098;49.448;7.904;2023-03-05T14:21:23;97918.53;;;4.17;55.40
46392;BME280;32098;49.448;7.904;2023-03-05T14:23:52;97919.13;;;4.13;55.87
46392;BME280;32098;49.448;7.904;2023-03-05T14:26:31;97911.59;;;4.09;56.17
46392;BME280;32098;49.448;7.904;2023-03-05T14:31:45;97901.38;;;4.00;56.13
46392;BME280;32098;49.448;7.904;2023-03-05T14:34:30;97902.78;;;3.96;56.15